Terminal Aerodrome Forecast
Issued by NWS Charleston, SC

Home | Current Version | Previous Version | Text Only | Print | Product List | Glossary On
Versions: 1 2 3 4 5 6 7 8 9 10 11 12 13 14 15 16 17 18 19 20 21
000
FTUS42 KCHS 210528
TAFSAV
TAF
KSAV 210528Z 2106/2206 19005KT P6SM SCT025 OVC060
     FM211000 20004KT 4SM BR SCT008 OVC015
     FM211500 22008KT P6SM SCT008 BKN015
     FM211900 19010KT P6SM VCSH SCT015 BKN030
      TEMPO 2120/2124 5SM SHRA BR SCT010 OVC015
     FM220000 19008KT P6SM SCT008 BKN015 WS020/23035KT=

USA.gov is the U.S. government's official web portal to all federal, state and local government web resources and services.